createdAt,value
2023-04-16T00:01:45.573Z,4.60
2023-04-16T00:04:12.300Z,4.50
2023-04-16T00:06:38.981Z,4.50
2023-04-16T00:09:05.587Z,4.50
2023-04-16T00:11:32.265Z,4.50
2023-04-16T00:13:58.901Z,4.50
2023-04-16T00:16:25.588Z,4.50
2023-04-16T00:18:52.214Z,4.50
2023-04-16T00:21:18.879Z,4.50
2023-04-16T00:23:45.803Z,4.50
2023-04-16T00:26:12.424Z,4.50
2023-04-16T00:28:39.061Z,4.40
2023-04-16T00:31:05.685Z,4.50
2023-04-16T00:33:32.341Z,4.40
2023-04-16T00:35:59.032Z,4.50
2023-04-16T00:38:29.834Z,4.50
2023-04-16T00:40:58.769Z,4.50
2023-04-16T00:43:26.750Z,4.50
2023-04-16T00:45:56.321Z,4.50
2023-04-16T00:48:23.276Z,4.50
2023-04-16T00:50:49.912Z,4.60
2023-04-16T00:53:16.739Z,4.60
2023-04-16T00:55:43.751Z,4.60
2023-04-16T00:58:10.495Z,4.60
2023-04-16T01:00:37.196Z,4.50
2023-04-16T01:03:05.331Z,4.50
2023-04-16T01:05:32.146Z,4.50
2023-04-16T01:08:01.330Z,4.50
2023-04-16T01:10:28.009Z,4.50
2023-04-16T01:12:54.595Z,4.50
2023-04-16T01:15:21.198Z,4.50
2023-04-16T01:17:48.258Z,4.50
2023-04-16T01:20:15.023Z,4.50
2023-04-16T01:22:41.587Z,4.60
2023-04-16T01:25:08.344Z,4.60
2023-04-16T01:27:34.995Z,4.60
2023-04-16T01:30:01.795Z,4.60
2023-04-16T01:32:31.438Z,4.50
2023-04-16T01:34:58.073Z,4.60
2023-04-16T01:37:24.666Z,4.50
2023-04-16T01:39:51.289Z,4.60
2023-04-16T01:42:17.901Z,4.60
2023-04-16T01:44:44.544Z,4.60
2023-04-16T01:47:11.208Z,4.60
2023-04-16T01:49:37.905Z,4.60
2023-04-16T01:52:04.713Z,4.60
2023-04-16T01:54:31.337Z,4.60
2023-04-16T01:56:57.972Z,4.70
2023-04-16T01:59:24.634Z,4.70
2023-04-16T02:01:51.301Z,4.70
2023-04-16T02:04:17.966Z,4.60
2023-04-16T02:06:44.747Z,4.60
2023-04-16T02:09:11.653Z,4.70
2023-04-16T02:11:38.558Z,4.70
2023-04-16T02:14:05.249Z,4.70
2023-04-16T02:16:31.864Z,4.70
2023-04-16T02:18:58.549Z,4.70
2023-04-16T02:21:25.843Z,4.60
2023-04-16T02:23:52.538Z,4.60
2023-04-16T02:26:19.106Z,4.60
2023-04-16T02:28:45.700Z,4.60
2023-04-16T02:31:12.309Z,4.70
2023-04-16T02:33:38.958Z,4.60
2023-04-16T02:36:05.969Z,4.80
2023-04-16T02:38:32.605Z,4.70
2023-04-16T02:40:59.323Z,4.70
2023-04-16T02:43:25.944Z,4.70
2023-04-16T02:45:52.589Z,4.80
2023-04-16T02:48:19.230Z,4.80
2023-04-16T02:50:45.862Z,4.80
2023-04-16T02:53:12.521Z,4.90
2023-04-16T02:55:39.114Z,4.80
2023-04-16T02:58:06.770Z,4.80
2023-04-16T03:00:33.503Z,4.80
2023-04-16T03:03:00.253Z,4.80
2023-04-16T03:05:26.982Z,4.80
2023-04-16T03:07:56.586Z,4.70
2023-04-16T03:10:24.081Z,4.70
2023-04-16T03:12:50.866Z,4.70
2023-04-16T03:15:17.755Z,4.70
2023-04-16T03:17:44.564Z,4.70
2023-04-16T03:20:11.578Z,4.70
2023-04-16T03:22:39.302Z,4.70
2023-04-16T03:25:06.956Z,4.70
2023-04-16T03:27:34.162Z,4.70
2023-04-16T03:30:01.366Z,4.70
2023-04-16T03:32:28.056Z,4.70
2023-04-16T03:34:54.736Z,4.70
2023-04-16T03:37:21.703Z,4.80
2023-04-16T03:39:48.353Z,4.70
2023-04-16T03:42:15.060Z,4.70
2023-04-16T03:44:41.739Z,4.80
2023-04-16T03:47:08.314Z,4.80
2023-04-16T03:49:34.902Z,4.80
2023-04-16T03:52:01.633Z,4.70
2023-04-16T03:54:28.351Z,4.80
2023-04-16T03:56:54.943Z,4.80
2023-04-16T03:59:21.526Z,4.70
2023-04-16T04:01:48.194Z,4.60
2023-04-16T04:04:15.195Z,4.60
2023-04-16T04:06:41.971Z,4.60
2023-04-16T04:09:08.618Z,4.60
2023-04-16T04:11:35.364Z,4.60
2023-04-16T04:14:01.961Z,4.60
2023-04-16T04:16:28.564Z,4.60
2023-04-16T04:18:55.625Z,4.60
2023-04-16T04:21:22.461Z,4.70
2023-04-16T04:23:49.446Z,4.70
2023-04-16T04:26:16.435Z,4.70
2023-04-16T04:28:43.102Z,4.70
2023-04-16T04:31:09.829Z,4.70
2023-04-16T04:33:36.612Z,4.70
2023-04-16T04:36:03.436Z,4.70
2023-04-16T04:38:30.429Z,4.70
2023-04-16T04:40:57.364Z,4.60
2023-04-16T04:43:24.355Z,4.70
2023-04-16T04:45:51.233Z,4.70
2023-04-16T04:48:17.983Z,4.60
2023-04-16T04:50:45.555Z,4.70
2023-04-16T04:53:14.590Z,4.60
2023-04-16T04:55:41.410Z,4.60
2023-04-16T04:58:08.488Z,4.70
2023-04-16T05:00:36.862Z,4.70
2023-04-16T05:03:05.125Z,4.70
2023-04-16T05:05:32.163Z,4.70
2023-04-16T05:07:58.761Z,4.80
2023-04-16T05:10:25.453Z,4.80
2023-04-16T05:12:52.075Z,4.70
2023-04-16T05:15:18.806Z,4.80
2023-04-16T05:17:45.999Z,4.80
2023-04-16T05:20:12.680Z,4.80
2023-04-16T05:22:39.285Z,4.80
2023-04-16T05:25:06.188Z,4.80
2023-04-16T05:27:32.913Z,4.70
2023-04-16T05:29:59.500Z,4.80
2023-04-16T05:32:27.380Z,4.80
2023-04-16T05:34:54.184Z,4.80
2023-04-16T05:37:20.821Z,4.80
2023-04-16T05:39:47.820Z,4.80
2023-04-16T05:42:14.496Z,4.90
2023-04-16T05:44:41.152Z,4.90
2023-04-16T05:47:09.322Z,4.90
2023-04-16T05:49:39.243Z,4.90
2023-04-16T05:52:06.231Z,4.90
2023-04-16T05:54:32.829Z,4.90
2023-04-16T05:57:01.553Z,4.80
2023-04-16T05:59:29.151Z,4.90
2023-04-16T06:01:55.921Z,4.90
2023-04-16T06:04:22.572Z,4.80
2023-04-16T06:06:49.248Z,4.80
2023-04-16T06:09:16.030Z,4.90
2023-04-16T06:11:42.687Z,4.80
2023-04-16T06:14:09.295Z,4.80
2023-04-16T06:16:35.964Z,4.90
2023-04-16T06:19:02.747Z,4.90
2023-04-16T06:21:29.577Z,5.00
2023-04-16T06:23:56.310Z,5.00
2023-04-16T06:26:22.988Z,5.10
2023-04-16T06:28:50.308Z,5.00
2023-04-16T06:31:17.079Z,5.10
2023-04-16T06:33:43.812Z,5.10
2023-04-16T06:36:11.332Z,5.10
2023-04-16T06:38:38.093Z,5.10
2023-04-16T06:41:05.472Z,5.10
2023-04-16T06:43:33.544Z,5.20
2023-04-16T06:46:00.421Z,5.20
2023-04-16T06:48:28.231Z,5.30
2023-04-16T06:50:55.963Z,5.30
2023-04-16T06:53:23.569Z,5.30
2023-04-16T06:55:50.213Z,5.30
2023-04-16T06:58:16.869Z,5.40
2023-04-16T07:00:43.505Z,5.40
2023-04-16T07:03:10.329Z,5.50
2023-04-16T07:05:37.197Z,5.50
2023-04-16T07:08:03.930Z,5.50
2023-04-16T07:10:31.224Z,5.60
2023-04-16T07:12:57.932Z,5.50
2023-04-16T07:15:24.639Z,5.50
2023-04-16T07:17:51.461Z,5.60
2023-04-16T07:20:18.117Z,5.60
2023-04-16T07:22:44.866Z,5.50
2023-04-16T07:25:11.560Z,5.60
2023-04-16T07:27:38.200Z,5.70
2023-04-16T07:30:05.562Z,5.70
2023-04-16T07:32:32.272Z,5.60
2023-04-16T07:34:58.995Z,5.60
2023-04-16T07:37:25.674Z,5.60
2023-04-16T07:39:52.839Z,5.60
2023-04-16T07:42:19.759Z,5.80
2023-04-16T07:44:46.435Z,5.80
2023-04-16T07:47:13.108Z,6.00
2023-04-16T07:49:39.833Z,6.00
2023-04-16T07:52:06.596Z,6.00
2023-04-16T07:54:33.208Z,5.90
2023-04-16T07:56:59.814Z,5.80
2023-04-16T07:59:26.755Z,5.80
2023-04-16T08:01:53.965Z,5.80
2023-04-16T08:04:24.955Z,5.90
2023-04-16T08:06:52.784Z,5.90
2023-04-16T08:09:21.583Z,5.90
2023-04-16T08:11:49.727Z,6.00
2023-04-16T08:14:17.529Z,6.00
2023-04-16T08:16:44.346Z,6.10
2023-04-16T08:33:54.330Z,6.20
2023-04-16T08:36:21.243Z,6.80
2023-04-16T08:38:47.875Z,6.80
2023-04-16T08:41:14.956Z,6.80
2023-04-16T08:43:47.499Z,6.90
2023-04-16T08:46:16.858Z,7.00
2023-04-16T09:03:50.010Z,7.10
2023-04-16T09:06:17.168Z,7.60
2023-04-16T18:18:31.217Z,7.80
2023-04-16T18:20:57.848Z,7.00
2023-04-16T18:23:24.422Z,7.10
2023-04-16T18:25:51.302Z,7.10
2023-04-16T18:28:18.842Z,7.30
2023-04-16T18:30:46.025Z,7.30
2023-04-16T18:33:38.997Z,7.10
2023-04-16T18:36:02.594Z,7.30
2023-04-16T18:38:32.293Z,7.20
2023-04-16T18:40:58.953Z,7.20
2023-04-16T18:43:25.702Z,7.00
2023-04-16T18:45:52.496Z,6.90
2023-04-16T18:48:19.177Z,7.00
2023-04-16T18:50:45.914Z,7.10
2023-04-16T18:53:12.539Z,7.20
2023-04-16T18:55:39.227Z,7.10
2023-04-16T18:58:06.103Z,7.00
2023-04-16T19:00:32.740Z,7.20
2023-04-16T19:02:59.482Z,7.10
2023-04-16T19:05:26.165Z,7.20
2023-04-16T19:07:52.842Z,7.20
2023-04-16T19:10:19.490Z,7.40
2023-04-16T19:12:46.091Z,7.60
2023-04-16T19:15:14.515Z,7.60
2023-04-16T19:17:41.181Z,7.40
2023-04-16T19:20:11.440Z,7.30
2023-04-16T19:22:38.609Z,7.40
2023-04-16T19:25:06.095Z,7.30
2023-04-16T19:27:33.385Z,7.30
2023-04-16T19:30:00.520Z,7.60
2023-04-16T19:32:27.271Z,7.50
2023-04-16T19:34:53.985Z,7.40
2023-04-16T19:37:20.636Z,7.40
2023-04-16T19:39:47.340Z,7.30
2023-04-16T19:42:13.952Z,7.20
2023-04-16T19:44:40.730Z,7.30
2023-04-16T19:47:07.445Z,7.20
2023-04-16T19:49:34.582Z,7.10
2023-04-16T19:52:01.540Z,7.10
2023-04-16T19:54:28.715Z,6.90
2023-04-16T19:56:55.374Z,6.90
2023-04-16T19:59:21.970Z,6.90
2023-04-16T20:01:48.707Z,6.90
2023-04-16T20:04:15.354Z,6.80
2023-04-16T20:06:41.966Z,6.80
2023-04-16T22:46:51.909Z,6.80
2023-04-16T22:49:18.552Z,5.90
2023-04-16T22:51:45.259Z,5.90
2023-04-16T22:54:13.804Z,5.90
2023-04-16T22:56:41.058Z,5.80
2023-04-16T22:59:07.734Z,5.70
2023-04-16T23:01:35.119Z,5.80
2023-04-16T23:04:02.000Z,5.90
2023-04-16T23:06:28.659Z,5.80
2023-04-16T23:08:55.419Z,5.70
2023-04-16T23:11:22.282Z,5.60
2023-04-16T23:13:48.918Z,5.60
2023-04-16T23:16:15.953Z,5.70
2023-04-16T23:18:42.626Z,5.60
2023-04-16T23:21:09.183Z,5.60
2023-04-16T23:23:35.764Z,5.60
